Weather at Albury Airport

Public forecast

Using degrees Celsius for public forecast. Weather courtesy of forecast.io.

Closest aviation weather report (METAR) to Albury Airport

Closest report is Canberra International Airport, 118.2 nm (218.9 km) ENE.

2022/12/03 01:00 (retrieved 39 minutes ago)

YSCB 030100Z AUTO 05004KT 350V110 9999 // NCD 22/13 Q1018

Closest aviation forecast (TAF) to Albury Airport

Forecast is more than 6 hours old.

Closest forecast is Nouméa Magenta Airport, 1,312.2 nm (2,430.2 km) NE.

2022/12/02 18:00 (retrieved 8 hours ago)

TAF NWWM 021700Z 0218/0318 29010KT 9999 FEW045 TEMPO 0300/0309 4500 SHRA FEW020CB PROB40 TEMPO 0303/0307 1500 TSRA BKN012 SCT018CB